createdAt,value
2023-01-01T00:00:17.252Z,941.17
2023-01-01T00:01:17.650Z,941.09
2023-01-01T00:02:18.278Z,941.19
2023-01-01T00:03:18.409Z,941.25
2023-01-01T00:04:19.125Z,941.28
2023-01-01T00:05:20.107Z,941.29
2023-01-01T00:06:21.050Z,941.24
2023-01-01T00:07:22.071Z,941.32
2023-01-01T00:08:23.011Z,941.32
2023-01-01T00:09:23.941Z,941.3
2023-01-01T00:10:24.157Z,941.39
2023-01-01T00:11:24.633Z,941.41
2023-01-01T00:12:24.846Z,941.37
2023-01-01T00:13:25.065Z,941.46
2023-01-01T00:14:25.553Z,941.45
2023-01-01T00:15:25.754Z,941.41
2023-01-01T00:16:26.740Z,941.43
2023-01-01T00:17:27.575Z,941.47
2023-01-01T00:18:28.262Z,941.46
2023-01-01T00:19:28.505Z,941.47
2023-01-01T00:20:34.859Z,941.55
2023-01-01T00:21:29.284Z,941.59
2023-01-01T00:22:54.323Z,941.66
2023-01-01T00:23:30.615Z,941.69
2023-01-01T00:24:30.811Z,941.81
2023-01-01T00:25:31.753Z,941.83
2023-01-01T00:26:35.147Z,941.88
2023-01-01T00:27:32.771Z,941.9
2023-01-01T00:28:33.260Z,941.88
2023-01-01T00:29:34.193Z,941.94
2023-01-01T00:30:35.119Z,941.98
2023-01-01T00:31:36.072Z,942.08
2023-01-01T00:32:36.484Z,942.05
2023-01-01T00:33:37.040Z,942.1
2023-01-01T00:34:37.269Z,942.04
2023-01-01T00:35:37.484Z,942.16
2023-01-01T00:36:38.405Z,942.15
2023-01-01T00:37:43.354Z,942.17
2023-01-01T00:38:39.462Z,942.19
2023-01-01T00:39:39.667Z,942.19
2023-01-01T00:40:39.949Z,942.13
2023-01-01T00:41:40.981Z,942.13
2023-01-01T00:42:41.200Z,942.13
2023-01-01T00:43:41.709Z,942.17
2023-01-01T00:44:42.633Z,942.16
2023-01-01T00:45:42.888Z,942.16
2023-01-01T00:46:43.771Z,942.23
2023-01-01T00:47:44.296Z,942.24
2023-01-01T00:48:45.274Z,942.24
2023-01-01T00:49:46.212Z,942.26
2023-01-01T00:50:47.129Z,942.2
2023-01-01T00:51:47.395Z,942.21
2023-01-01T00:52:48.335Z,942.24
2023-01-01T00:53:49.034Z,942.32
2023-01-01T00:54:49.388Z,942.26
2023-01-01T00:55:49.613Z,942.36
2023-01-01T00:56:50.576Z,942.36
2023-01-01T00:57:51.188Z,942.43
2023-01-01T00:59:00.402Z,942.45
2023-01-01T00:59:52.201Z,942.54
2023-01-01T01:00:52.786Z,942.58
2023-01-01T01:01:53.776Z,942.62
2023-01-01T01:02:53.940Z,942.66
2023-01-01T01:03:54.420Z,942.66
2023-01-01T01:04:55.411Z,942.68
2023-01-01T01:05:55.983Z,942.65
2023-01-01T01:06:56.275Z,942.65
2023-01-01T01:07:56.961Z,942.66
2023-01-01T01:08:57.176Z,942.65
2023-01-01T01:09:57.392Z,942.69
2023-01-01T01:10:57.913Z,942.67
2023-01-01T01:12:17.051Z,942.61
2023-01-01T01:12:58.782Z,942.64
2023-01-01T01:13:59.426Z,942.59
2023-01-01T01:15:00.140Z,942.6
2023-01-01T01:16:00.367Z,942.61
2023-01-01T01:17:00.748Z,942.62
2023-01-01T01:18:01.805Z,942.6
2023-01-01T01:19:02.019Z,942.66
2023-01-01T01:20:02.324Z,942.68
2023-01-01T01:21:03.269Z,942.63
2023-01-01T01:22:04.301Z,942.64
2023-01-01T01:23:04.596Z,942.65
2023-01-01T01:24:04.813Z,942.66
2023-01-01T01:25:05.034Z,942.69
2023-01-01T01:26:05.965Z,942.69
2023-01-01T01:27:06.992Z,942.68
2023-01-01T01:28:07.937Z,942.68
2023-01-01T01:29:08.152Z,942.67
2023-01-01T01:30:08.801Z,942.68
2023-01-01T01:31:09.127Z,942.68
2023-01-01T01:32:09.536Z,942.71
2023-01-01T01:33:09.852Z,942.75
2023-01-01T01:34:15.368Z,942.77
2023-01-01T01:35:11.127Z,942.82
2023-01-01T01:36:11.720Z,942.82
2023-01-01T01:37:11.953Z,942.81
2023-01-01T01:38:12.225Z,942.81
2023-01-01T01:39:12.899Z,942.8
2023-01-01T01:40:13.109Z,942.79
2023-01-01T01:41:26.600Z,942.76
2023-01-01T01:42:15.318Z,942.74
2023-01-01T01:43:15.864Z,942.71
2023-01-01T01:44:16.799Z,942.66
2023-01-01T01:45:17.743Z,942.63
2023-01-01T01:46:18.795Z,942.65
2023-01-01T01:47:19.277Z,942.62
2023-01-01T01:48:19.531Z,942.64
2023-01-01T01:49:19.740Z,942.64
2023-01-01T01:50:19.960Z,942.63
2023-01-01T01:51:20.191Z,942.63
2023-01-01T01:52:21.245Z,942.64
2023-01-01T01:53:22.198Z,942.66
2023-01-01T01:54:22.432Z,942.65
2023-01-01T01:55:22.660Z,942.65
2023-01-01T01:56:23.566Z,942.64
2023-01-01T01:57:24.579Z,942.63
2023-01-01T01:58:24.774Z,942.62
2023-01-01T01:59:25.277Z,942.6
2023-01-01T02:00:25.485Z,942.62
2023-01-01T02:01:25.780Z,942.63
2023-01-01T02:02:26.628Z,942.59
2023-01-01T02:03:26.602Z,942.63
2023-01-01T02:04:27.012Z,942.64
2023-01-01T02:05:27.666Z,942.68
2023-01-01T02:06:28.334Z,942.65
2023-01-01T02:07:28.713Z,942.66
2023-01-01T02:08:29.684Z,942.62
2023-01-01T02:09:30.336Z,942.58
2023-01-01T02:10:30.992Z,942.59
2023-01-01T02:11:31.903Z,942.56
2023-01-01T02:12:32.994Z,942.51
2023-01-01T02:13:33.913Z,942.49
2023-01-01T02:14:34.556Z,942.46
2023-01-01T02:15:34.957Z,942.44
2023-01-01T02:16:35.075Z,942.44
2023-01-01T02:17:39.203Z,942.37
2023-01-01T02:18:36.436Z,942.38
2023-01-01T02:19:36.650Z,942.35
2023-01-01T02:20:37.338Z,942.33
2023-01-01T02:21:37.586Z,942.36
2023-01-01T02:22:38.344Z,942.34
2023-01-01T02:23:39.070Z,942.38
2023-01-01T02:24:40.000Z,942.36
2023-01-01T02:25:40.636Z,942.39
2023-01-01T02:26:40.857Z,942.38
2023-01-01T02:27:41.106Z,942.39
2023-01-01T02:28:41.322Z,942.37
2023-01-01T02:29:41.830Z,942.35
2023-01-01T02:30:42.400Z,942.31
2023-01-01T02:31:42.734Z,942.38
2023-01-01T02:32:43.489Z,942.34
2023-01-01T02:33:44.014Z,942.35
2023-01-01T02:34:44.220Z,942.34
2023-01-01T02:35:44.446Z,942.35
2023-01-01T02:36:44.956Z,942.32
2023-01-01T02:37:45.888Z,942.25
2023-01-01T02:38:46.892Z,942.23
2023-01-01T02:39:47.823Z,942.2
2023-01-01T02:40:48.185Z,942.23
2023-01-01T02:41:48.824Z,942.2
2023-01-01T02:42:49.910Z,942.2
2023-01-01T02:43:50.127Z,942.2
2023-01-01T02:44:51.141Z,942.16
2023-01-01T02:45:51.433Z,942.17
2023-01-01T02:46:51.871Z,942.16
2023-01-01T02:47:52.816Z,942.22
2023-01-01T02:48:53.373Z,942.24
2023-01-01T02:49:54.376Z,942.24
2023-01-01T02:50:55.420Z,942.26
2023-01-01T02:51:55.670Z,942.22
2023-01-01T02:52:56.712Z,942.23
2023-01-01T02:53:57.252Z,942.22
2023-01-01T02:54:57.907Z,942.25
2023-01-01T02:55:58.118Z,942.19
2023-01-01T02:56:58.762Z,942.16
2023-01-01T02:57:58.989Z,942.17
2023-01-01T02:58:59.494Z,942.17
2023-01-01T02:59:59.881Z,942.2
2023-01-01T03:01:00.163Z,942.17
2023-01-01T03:02:00.867Z,942.2
2023-01-01T03:03:01.777Z,942.18
2023-01-01T03:04:01.887Z,942.21
2023-01-01T03:05:02.540Z,942.23
2023-01-01T03:06:03.479Z,942.23
2023-01-01T03:07:04.171Z,942.22
2023-01-01T03:08:04.441Z,942.2
2023-01-01T03:09:04.688Z,942.19
2023-01-01T03:10:05.609Z,942.14
2023-01-01T03:11:06.136Z,942.15
2023-01-01T03:12:06.802Z,942.17
2023-01-01T03:13:07.305Z,942.09
2023-01-01T03:14:07.521Z,942.09
2023-01-01T03:15:08.452Z,942.12
2023-01-01T03:16:09.559Z,942.13
2023-01-01T03:17:10.054Z,942.17
2023-01-01T03:18:10.307Z,942.21
2023-01-01T03:19:11.429Z,942.18
2023-01-01T03:20:11.769Z,942.17
2023-01-01T03:22:13.075Z,942.19
2023-01-01T03:23:13.783Z,942.18
2023-01-01T03:24:14.034Z,942.17
2023-01-01T03:25:14.975Z,942.16
2023-01-01T03:26:15.907Z,942.14
2023-01-01T03:27:16.581Z,942.12
2023-01-01T03:28:16.842Z,942.15
2023-01-01T03:29:17.339Z,942.14
2023-01-01T03:30:17.692Z,942.19
2023-01-01T03:31:17.964Z,942.22
2023-01-01T03:32:18.447Z,942.22
2023-01-01T03:33:19.502Z,942.22
2023-01-01T03:34:20.013Z,942.25
2023-01-01T03:35:20.957Z,942.27
2023-01-01T03:36:21.899Z,942.27
2023-01-01T03:37:22.515Z,942.3
2023-01-01T03:38:22.708Z,942.31
2023-01-01T03:39:23.661Z,942.35
2023-01-01T03:40:24.637Z,942.32
2023-01-01T03:41:25.570Z,942.32
2023-01-01T03:42:26.131Z,942.33
2023-01-01T03:43:26.470Z,942.31
2023-01-01T03:44:26.959Z,942.3
2023-01-01T03:45:27.656Z,942.33
2023-01-01T03:46:28.218Z,942.35
2023-01-01T03:47:28.619Z,942.39
2023-01-01T03:48:29.305Z,942.37
2023-01-01T03:49:30.289Z,942.41
2023-01-01T03:50:31.259Z,942.39
2023-01-01T03:51:31.474Z,942.33
2023-01-01T03:52:31.693Z,942.34
2023-01-01T03:53:32.457Z,942.37
2023-01-01T03:54:33.144Z,942.38
2023-01-01T03:55:33.552Z,942.44
2023-01-01T03:56:34.474Z,942.43
2023-01-01T03:57:34.712Z,942.4
2023-01-01T03:58:34.970Z,942.36
2023-01-01T03:59:35.186Z,942.38
2023-01-01T04:00:35.400Z,942.36
2023-01-01T04:01:36.392Z,942.34
2023-01-01T04:02:37.365Z,942.32
2023-01-01T04:03:37.990Z,942.32
2023-01-01T04:04:38.545Z,942.34
2023-01-01T04:05:39.501Z,942.33
2023-01-01T04:06:40.203Z,942.32
2023-01-01T04:08:40.761Z,942.36
2023-01-01T04:09:41.703Z,942.4
2023-01-01T04:10:41.902Z,942.37
2023-01-01T04:11:42.127Z,942.43
2023-01-01T04:12:42.343Z,942.44
2023-01-01T04:13:42.716Z,942.45
2023-01-01T04:14:42.918Z,942.48
2023-01-01T04:15:43.841Z,942.52
2023-01-01T04:16:44.539Z,942.51
2023-01-01T04:17:44.763Z,942.49
2023-01-01T04:18:45.506Z,942.52
2023-01-01T04:19:50.166Z,942.53
2023-01-01T04:20:46.751Z,942.56
2023-01-01T04:21:47.680Z,942.57
2023-01-01T04:22:47.951Z,942.58
2023-01-01T04:23:48.383Z,942.51
2023-01-01T04:24:49.318Z,942.52
2023-01-01T04:25:50.237Z,942.51
2023-01-01T04:26:50.867Z,942.51
2023-01-01T04:27:51.795Z,942.52
2023-01-01T04:28:52.744Z,942.54
2023-01-01T04:29:53.651Z,942.56
2023-01-01T04:31:54.896Z,942.57
2023-01-01T04:32:55.577Z,942.6
2023-01-01T04:33:56.394Z,942.54
2023-01-01T04:34:57.010Z,942.59
2023-01-01T04:35:57.932Z,942.61
2023-01-01T04:36:58.151Z,942.63
2023-01-01T04:37:58.703Z,942.61
2023-01-01T04:38:59.343Z,942.6
2023-01-01T04:40:00.393Z,942.58
2023-01-01T04:41:01.422Z,942.59
2023-01-01T04:42:01.642Z,942.59
2023-01-01T04:43:01.895Z,942.63
2023-01-01T04:44:02.650Z,942.64
2023-01-01T04:45:03.637Z,942.69
2023-01-01T04:46:04.143Z,942.7
2023-01-01T04:47:04.547Z,942.76
2023-01-01T04:48:05.496Z,942.72
2023-01-01T04:49:05.759Z,942.74
2023-01-01T04:50:06.019Z,942.71
2023-01-01T04:51:06.233Z,942.74
2023-01-01T04:52:06.463Z,942.7
2023-01-01T04:53:07.404Z,942.69
2023-01-01T04:54:07.891Z,942.68
2023-01-01T04:55:08.138Z,942.69
2023-01-01T04:56:08.364Z,942.76
2023-01-01T04:57:08.848Z,942.77
2023-01-01T04:58:09.231Z,942.77
2023-01-01T04:59:10.169Z,942.8
2023-01-01T05:00:10.397Z,942.84
2023-01-01T05:01:10.727Z,942.83
2023-01-01T05:02:11.708Z,942.76
2023-01-01T05:03:12.303Z,942.76
2023-01-01T05:04:12.659Z,942.75
2023-01-01T05:05:13.607Z,942.75
2023-01-01T05:06:13.877Z,942.74
2023-01-01T05:07:14.141Z,942.78
2023-01-01T05:08:15.128Z,942.77
2023-01-01T05:09:16.085Z,942.76
2023-01-01T05:10:16.706Z,942.78
2023-01-01T05:11:16.931Z,942.81
2023-01-01T05:12:17.176Z,942.82
2023-01-01T05:13:18.084Z,942.8
2023-01-01T05:14:19.206Z,942.82
2023-01-01T05:15:19.445Z,942.8
2023-01-01T05:16:19.957Z,942.84
2023-01-01T05:17:20.492Z,942.85
2023-01-01T05:18:21.414Z,942.88
2023-01-01T05:19:21.935Z,942.86
2023-01-01T05:20:22.465Z,942.88
2023-01-01T05:21:23.138Z,942.88
2023-01-01T05:22:24.088Z,942.91
2023-01-01T05:23:25.056Z,942.89
2023-01-01T05:24:25.215Z,942.94
2023-01-01T05:25:26.170Z,942.91
2023-01-01T05:26:26.380Z,942.91
2023-01-01T05:27:27.318Z,942.93
2023-01-01T05:28:27.430Z,942.91
2023-01-01T05:29:27.969Z,942.93
2023-01-01T05:30:28.224Z,942.91
2023-01-01T05:31:28.750Z,942.94
2023-01-01T05:32:29.545Z,942.89
2023-01-01T05:33:30.186Z,942.88
2023-01-01T05:35:30.892Z,942.95
2023-01-01T05:36:31.123Z,942.92
2023-01-01T05:37:32.089Z,942.89
2023-01-01T05:38:33.018Z,942.9
2023-01-01T05:39:33.535Z,942.86
2023-01-01T05:40:34.469Z,942.89
2023-01-01T05:41:34.695Z,942.87
2023-01-01T05:42:34.945Z,942.9
2023-01-01T05:43:35.876Z,942.92
2023-01-01T05:44:36.887Z,942.87
2023-01-01T05:45:37.120Z,942.91
2023-01-01T05:46:37.543Z,942.88
2023-01-01T05:47:38.068Z,942.87
2023-01-01T05:48:39.013Z,942.89
2023-01-01T05:49:39.977Z,942.88
2023-01-01T05:50:40.914Z,942.88
2023-01-01T05:52:41.777Z,942.86
2023-01-01T05:53:42.425Z,942.86
2023-01-01T05:54:42.857Z,942.81
2023-01-01T05:55:43.517Z,942.81
2023-01-01T05:56:44.496Z,942.82
2023-01-01T05:57:45.438Z,942.82
2023-01-01T05:58:45.676Z,942.79
2023-01-01T05:59:45.933Z,942.82
2023-01-01T06:00:46.882Z,942.8
2023-01-01T06:01:47.985Z,942.8
2023-01-01T06:02:48.996Z,942.85
2023-01-01T06:03:49.415Z,942.81
2023-01-01T06:04:50.117Z,942.83
2023-01-01T06:05:50.656Z,942.81
2023-01-01T06:06:51.585Z,942.81
2023-01-01T06:07:52.540Z,942.82
2023-01-01T06:08:52.747Z,942.86
2023-01-01T06:09:53.723Z,942.83
2023-01-01T06:10:54.674Z,942.79
2023-01-01T06:11:55.599Z,942.77
2023-01-01T06:12:56.240Z,942.78
2023-01-01T06:13:56.720Z,942.79
2023-01-01T06:14:57.380Z,942.81
2023-01-01T06:15:57.587Z,942.81
2023-01-01T06:16:58.103Z,942.83
2023-01-01T06:17:58.470Z,942.85
2023-01-01T06:18:58.687Z,942.87
2023-01-01T06:19:59.361Z,942.87
2023-01-01T06:20:59.603Z,942.91
2023-01-01T06:21:59.828Z,942.88
2023-01-01T06:23:00.782Z,942.95
2023-01-01T06:24:01.742Z,942.97
2023-01-01T06:25:02.011Z,942.99
2023-01-01T06:26:02.365Z,943.01
2023-01-01T06:27:03.293Z,943.05
2023-01-01T06:28:03.538Z,943.07
2023-01-01T06:29:03.777Z,943.07
2023-01-01T06:30:04.742Z,943.06
2023-01-01T06:31:05.808Z,943.01
2023-01-01T06:32:06.346Z,943.03
2023-01-01T06:33:06.575Z,943.04
2023-01-01T06:34:06.801Z,943.07
2023-01-01T06:35:07.457Z,943.06
2023-01-01T06:36:07.680Z,943.09
2023-01-01T06:37:07.912Z,943.11
2023-01-01T06:38:08.560Z,943.07
2023-01-01T06:39:08.758Z,943.05
2023-01-01T06:40:09.737Z,943.06
2023-01-01T06:41:10.702Z,943.1
2023-01-01T06:42:11.642Z,943.12
2023-01-01T06:43:12.125Z,943.14
2023-01-01T06:44:12.328Z,943.18
2023-01-01T06:45:12.925Z,943.19
2023-01-01T06:46:13.461Z,943.2
2023-01-01T06:47:14.091Z,943.18
2023-01-01T06:48:14.714Z,943.21
2023-01-01T06:49:15.662Z,943.24
2023-01-01T06:50:16.635Z,943.24
2023-01-01T06:51:17.559Z,943.25
2023-01-01T06:52:18.520Z,943.28
2023-01-01T06:53:19.428Z,943.25
2023-01-01T06:54:20.387Z,943.24
2023-01-01T06:55:21.056Z,943.26
2023-01-01T06:56:21.704Z,943.41
2023-01-01T06:57:21.909Z,943.33
2023-01-01T06:58:22.418Z,943.34
2023-01-01T06:59:23.335Z,943.36
2023-01-01T07:00:23.856Z,943.34
2023-01-01T07:01:24.895Z,943.34
2023-01-01T07:02:25.415Z,943.3
2023-01-01T07:03:26.111Z,943.31
2023-01-01T07:04:26.654Z,943.34
2023-01-01T07:05:27.697Z,943.32
2023-01-01T07:06:27.907Z,943.3
2023-01-01T07:07:32.563Z,943.32
2023-01-01T07:08:29.129Z,943.33
2023-01-01T07:09:29.569Z,943.35
2023-01-01T07:10:30.131Z,943.4
2023-01-01T07:11:31.108Z,943.47
2023-01-01T07:12:31.354Z,943.42
2023-01-01T07:13:31.616Z,943.39
2023-01-01T07:14:32.564Z,943.37
2023-01-01T07:15:33.084Z,943.4
2023-01-01T07:16:34.129Z,943.39
2023-01-01T07:17:34.975Z,943.41
2023-01-01T07:18:35.631Z,943.42
2023-01-01T07:19:35.844Z,943.45
2023-01-01T07:20:36.096Z,943.54
2023-01-01T07:21:37.035Z,943.6
2023-01-01T07:22:37.252Z,943.67
2023-01-01T07:23:38.192Z,943.71
2023-01-01T07:24:38.540Z,943.73
2023-01-01T07:25:39.145Z,943.73
2023-01-01T07:26:39.379Z,943.77
2023-01-01T07:27:40.090Z,943.74
2023-01-01T07:28:40.369Z,943.71
2023-01-01T07:29:41.186Z,943.71
2023-01-01T07:30:42.263Z,943.71
2023-01-01T07:31:42.910Z,943.67
2023-01-01T07:32:43.445Z,943.68
2023-01-01T07:33:43.640Z,943.66
2023-01-01T07:34:48.923Z,943.72
2023-01-01T07:35:44.959Z,943.71
2023-01-01T07:36:45.517Z,943.76
2023-01-01T07:37:46.040Z,943.82
2023-01-01T07:38:46.966Z,943.81
2023-01-01T07:39:47.982Z,943.81
2023-01-01T07:40:48.332Z,943.8
2023-01-01T07:41:49.300Z,943.78
2023-01-01T07:42:49.749Z,943.76
2023-01-01T07:43:50.663Z,943.81
2023-01-01T07:44:51.388Z,943.83
2023-01-01T07:45:51.910Z,943.86
2023-01-01T07:46:52.383Z,943.9
2023-01-01T07:47:52.595Z,943.96
2023-01-01T07:48:53.255Z,943.95
2023-01-01T07:49:53.832Z,943.96
2023-01-01T07:50:54.498Z,943.99
2023-01-01T07:51:54.733Z,943.99
2023-01-01T07:52:55.685Z,943.97
2023-01-01T07:53:59.344Z,943.97
2023-01-01T07:54:56.627Z,943.99
2023-01-01T07:55:56.995Z,943.93
2023-01-01T07:56:57.272Z,944.03
2023-01-01T07:57:57.923Z,944.06
2023-01-01T07:58:58.200Z,944.12
2023-01-01T07:59:59.032Z,944.18
2023-01-01T08:01:00.103Z,944.19
2023-01-01T08:02:00.528Z,944.22
2023-01-01T08:03:01.496Z,944.21
2023-01-01T08:04:01.565Z,944.2
2023-01-01T08:05:02.263Z,944.2
2023-01-01T08:06:03.148Z,944.23
2023-01-01T08:07:03.388Z,944.26
2023-01-01T08:08:03.923Z,944.21
2023-01-01T08:09:04.159Z,944.2
2023-01-01T08:10:04.436Z,944.16
2023-01-01T08:11:05.413Z,944.2
2023-01-01T08:12:06.483Z,944.2
2023-01-01T08:13:06.717Z,944.23
2023-01-01T08:14:07.072Z,944.21
2023-01-01T08:15:07.692Z,944.27
2023-01-01T08:16:08.261Z,944.27
2023-01-01T08:17:09.050Z,944.27
2023-01-01T08:18:09.986Z,944.3
2023-01-01T08:19:10.617Z,944.28
2023-01-01T08:20:10.832Z,944.29
2023-01-01T08:21:11.758Z,944.24
2023-01-01T08:22:12.728Z,944.23
2023-01-01T08:23:13.251Z,944.25
2023-01-01T08:24:13.510Z,944.3
2023-01-01T08:25:13.737Z,944.31
2023-01-01T08:26:14.081Z,944.31
2023-01-01T08:27:14.477Z,944.26
2023-01-01T08:28:15.129Z,944.29
2023-01-01T08:29:16.144Z,944.26
2023-01-01T08:30:17.104Z,944.27
2023-01-01T08:31:18.188Z,944.31
2023-01-01T08:32:18.397Z,944.29
2023-01-01T08:33:18.891Z,944.32
2023-01-01T08:34:19.840Z,944.31
2023-01-01T08:35:20.786Z,944.33
2023-01-01T08:36:21.889Z,944.34
2023-01-01T08:37:22.176Z,944.37
2023-01-01T08:38:23.120Z,944.35
2023-01-01T08:39:24.082Z,944.37
2023-01-01T08:40:24.441Z,944.4
2023-01-01T08:41:24.674Z,944.38
2023-01-01T08:42:25.321Z,944.38
2023-01-01T08:43:25.815Z,944.33
2023-01-01T08:44:26.208Z,944.33
2023-01-01T08:45:26.415Z,944.36
2023-01-01T08:46:26.611Z,944.3
2023-01-01T08:47:27.407Z,944.31
2023-01-01T08:48:30.856Z,944.32
2023-01-01T08:49:29.268Z,944.27
2023-01-01T08:50:29.509Z,944.24
2023-01-01T08:51:29.743Z,944.26
2023-01-01T08:52:30.762Z,944.28
2023-01-01T08:53:31.288Z,944.26
2023-01-01T08:54:31.553Z,944.29
2023-01-01T08:55:32.509Z,944.29
2023-01-01T08:56:33.017Z,944.24
2023-01-01T08:57:33.963Z,944.3
2023-01-01T08:58:34.492Z,944.34
2023-01-01T08:59:35.463Z,944.33
2023-01-01T09:00:35.703Z,944.27
2023-01-01T09:01:36.089Z,944.29
2023-01-01T09:02:36.899Z,944.32
2023-01-01T09:03:37.353Z,944.35
2023-01-01T09:04:38.313Z,944.44
2023-01-01T09:05:38.681Z,944.39
2023-01-01T09:06:39.431Z,944.31
2023-01-01T09:07:40.399Z,944.32
2023-01-01T09:08:41.347Z,944.32
2023-01-01T09:09:42.328Z,944.38
2023-01-01T09:10:42.701Z,944.36
2023-01-01T09:11:43.648Z,944.38
2023-01-01T09:12:44.624Z,944.39
2023-01-01T09:13:44.862Z,944.38
2023-01-01T09:14:45.812Z,944.34
2023-01-01T09:15:46.076Z,944.4
2023-01-01T09:16:46.720Z,944.39
2023-01-01T09:17:47.502Z,944.39
2023-01-01T09:18:48.462Z,944.41
2023-01-01T09:19:48.688Z,944.42
2023-01-01T09:20:49.350Z,944.46
2023-01-01T09:21:49.876Z,944.43
2023-01-01T09:22:50.888Z,944.44
2023-01-01T09:23:51.368Z,944.41
2023-01-01T09:24:52.375Z,944.44
2023-01-01T09:25:53.048Z,944.44
2023-01-01T09:26:54.098Z,944.45
2023-01-01T09:27:55.052Z,944.45
2023-01-01T09:28:55.712Z,944.46
2023-01-01T09:29:55.941Z,944.45
2023-01-01T09:30:56.660Z,944.49
2023-01-01T09:31:57.151Z,944.49
2023-01-01T09:32:57.324Z,944.54
2023-01-01T09:33:58.272Z,944.54
2023-01-01T09:34:58.506Z,944.58
2023-01-01T09:35:59.443Z,944.61
2023-01-01T09:36:59.804Z,944.64
2023-01-01T09:38:00.762Z,944.64
2023-01-01T09:39:01.479Z,944.65
2023-01-01T09:40:02.165Z,944.67
2023-01-01T09:41:02.471Z,944.73
2023-01-01T09:42:02.720Z,944.76
2023-01-01T09:43:03.671Z,944.76
2023-01-01T09:44:03.900Z,944.73
2023-01-01T09:45:04.416Z,944.72
2023-01-01T09:46:05.381Z,944.68
2023-01-01T09:47:06.003Z,944.73
2023-01-01T09:48:06.928Z,944.73
2023-01-01T09:49:07.878Z,944.71
2023-01-01T09:50:08.105Z,944.71
2023-01-01T09:51:08.231Z,944.73
2023-01-01T09:52:09.164Z,944.75
2023-01-01T09:53:09.860Z,944.72
2023-01-01T09:54:10.397Z,944.75
2023-01-01T09:55:11.074Z,944.73
2023-01-01T09:56:11.306Z,944.69
2023-01-01T09:57:16.474Z,944.72
2023-01-01T09:58:12.662Z,944.71
2023-01-01T09:59:13.303Z,944.67
2023-01-01T10:00:13.539Z,944.68
2023-01-01T10:01:14.008Z,944.66
2023-01-01T10:02:14.990Z,944.64
2023-01-01T10:03:15.611Z,944.63
2023-01-01T10:04:15.851Z,944.61
2023-01-01T10:05:15.940Z,944.58
2023-01-01T10:06:16.355Z,944.57
2023-01-01T10:07:16.659Z,944.55
2023-01-01T10:08:22.911Z,944.5
2023-01-01T10:09:17.794Z,944.52
2023-01-01T10:10:18.462Z,944.54
2023-01-01T10:11:19.543Z,944.55
2023-01-01T10:12:20.555Z,944.59
2023-01-01T10:13:21.502Z,944.57
2023-01-01T10:14:22.085Z,944.54
2023-01-01T10:15:22.456Z,944.53
2023-01-01T10:16:24.866Z,944.52
2023-01-01T10:17:24.061Z,944.59
2023-01-01T10:18:25.000Z,944.59
2023-01-01T10:19:25.407Z,944.61
2023-01-01T10:20:26.334Z,944.64
2023-01-01T10:21:27.265Z,944.61
2023-01-01T10:22:27.597Z,944.55
2023-01-01T10:23:27.843Z,944.56
2023-01-01T10:24:28.789Z,944.58
2023-01-01T10:25:29.755Z,944.59
2023-01-01T10:26:30.676Z,944.58
2023-01-01T10:27:31.752Z,944.63
2023-01-01T10:28:32.074Z,944.62
2023-01-01T10:29:33.164Z,944.63
2023-01-01T10:30:33.623Z,944.65
2023-01-01T10:31:33.913Z,944.67
2023-01-01T10:32:34.175Z,944.65
2023-01-01T10:33:34.685Z,944.66
2023-01-01T10:34:35.335Z,944.62
2023-01-01T10:35:35.848Z,944.65
2023-01-01T10:36:36.081Z,944.63
2023-01-01T10:37:36.449Z,944.61
2023-01-01T10:38:37.165Z,944.59
2023-01-01T10:39:38.199Z,944.56
2023-01-01T10:40:39.148Z,944.54
2023-01-01T10:41:40.103Z,944.56
2023-01-01T10:42:41.110Z,944.54
2023-01-01T10:43:42.059Z,944.53
2023-01-01T10:44:42.612Z,944.52
2023-01-01T10:45:42.843Z,944.51
2023-01-01T10:46:43.082Z,944.44
2023-01-01T10:47:43.889Z,944.44
2023-01-01T10:48:44.396Z,944.47
2023-01-01T10:49:45.075Z,944.44
2023-01-01T10:50:45.374Z,944.46
2023-01-01T10:51:45.952Z,944.45
2023-01-01T10:52:46.461Z,944.44
2023-01-01T10:53:46.723Z,944.39
2023-01-01T10:54:46.956Z,944.41
2023-01-01T10:55:47.951Z,944.38
2023-01-01T10:56:48.927Z,944.42
2023-01-01T10:57:49.584Z,944.43
2023-01-01T10:58:50.534Z,944.38
2023-01-01T10:59:54.350Z,944.36
2023-01-01T11:00:51.091Z,944.38
2023-01-01T11:01:52.081Z,944.36
2023-01-01T11:02:52.219Z,944.33
2023-01-01T11:03:52.355Z,944.3
2023-01-01T11:04:52.902Z,944.31
2023-01-01T11:05:53.691Z,944.31
2023-01-01T11:06:54.624Z,944.27
2023-01-01T11:07:55.360Z,944.27
2023-01-01T11:08:56.441Z,944.25
2023-01-01T11:10:02.897Z,944.24
2023-01-01T11:10:56.859Z,944.2
2023-01-01T11:12:00.718Z,944.2
2023-01-01T11:13:15.312Z,944.18
2023-01-01T11:14:16.260Z,944.19
2023-01-01T11:15:16.509Z,944.2
2023-01-01T11:16:16.823Z,944.17
2023-01-01T11:17:17.237Z,944.21
2023-01-01T11:18:17.546Z,944.22
2023-01-01T11:19:18.213Z,944.2
2023-01-01T11:20:19.165Z,944.23
2023-01-01T11:21:19.397Z,944.19
2023-01-01T11:22:20.405Z,944.13
2023-01-01T11:23:20.942Z,944.11
2023-01-01T11:24:21.524Z,944.06
2023-01-01T11:25:21.799Z,944.04
2023-01-01T11:26:22.479Z,944.06
2023-01-01T11:27:23.426Z,944.06
2023-01-01T11:28:23.964Z,943.99
2023-01-01T11:29:24.404Z,943.93
2023-01-01T11:30:25.208Z,943.93
2023-01-01T11:31:25.336Z,943.9
2023-01-01T11:32:26.291Z,943.94
2023-01-01T11:33:26.640Z,943.92
2023-01-01T11:34:27.260Z,943.91
2023-01-01T11:35:27.609Z,943.88
2023-01-01T11:36:28.647Z,943.85
2023-01-01T11:37:29.585Z,943.79
2023-01-01T11:38:30.719Z,943.79
2023-01-01T11:39:30.781Z,943.75
2023-01-01T11:40:31.104Z,943.7
2023-01-01T11:41:31.346Z,943.68
2023-01-01T11:42:32.356Z,943.67
2023-01-01T11:43:33.061Z,943.7
2023-01-01T11:44:34.030Z,943.62
2023-01-01T11:45:37.556Z,943.65
2023-01-01T11:46:34.963Z,943.63
2023-01-01T11:47:35.268Z,943.57
2023-01-01T11:48:36.318Z,943.58
2023-01-01T11:49:36.991Z,943.58
2023-01-01T11:50:37.934Z,943.51
2023-01-01T11:51:38.980Z,943.47
2023-01-01T11:52:39.621Z,943.47
2023-01-01T11:53:40.576Z,943.43
2023-01-01T11:54:41.102Z,943.46
2023-01-01T11:55:41.631Z,943.43
2023-01-01T11:56:41.909Z,943.42
2023-01-01T11:57:42.579Z,943.45
2023-01-01T11:58:43.080Z,943.43
2023-01-01T11:59:44.139Z,943.43
2023-01-01T12:00:45.081Z,943.42
2023-01-01T12:01:45.556Z,943.43
2023-01-01T12:02:46.356Z,943.41
2023-01-01T12:03:47.366Z,943.36
2023-01-01T12:04:47.608Z,943.41
2023-01-01T12:05:48.547Z,943.41
2023-01-01T12:06:49.065Z,943.35
2023-01-01T12:07:49.313Z,943.35
2023-01-01T12:08:49.914Z,943.28
2023-01-01T12:09:50.163Z,943.27
2023-01-01T12:10:50.585Z,943.28
2023-01-01T12:11:50.847Z,943.33
2023-01-01T12:12:51.380Z,943.34
2023-01-01T12:13:52.361Z,943.34
2023-01-01T12:14:52.926Z,943.34
2023-01-01T12:15:53.907Z,943.34
2023-01-01T12:16:54.180Z,943.38
2023-01-01T12:17:55.131Z,943.39
2023-01-01T12:18:55.275Z,943.36
2023-01-01T12:19:55.887Z,943.39
2023-01-01T12:20:56.827Z,943.39
2023-01-01T12:21:57.781Z,943.36
2023-01-01T12:22:58.733Z,943.34
2023-01-01T12:23:59.676Z,943.34
2023-01-01T12:24:59.928Z,943.37
2023-01-01T12:26:00.730Z,943.37
2023-01-01T12:27:05.302Z,943.33
2023-01-01T12:28:01.555Z,943.37
2023-01-01T12:29:02.594Z,943.37
2023-01-01T12:30:03.552Z,943.36
2023-01-01T12:31:04.182Z,943.35
2023-01-01T12:32:04.812Z,943.36
2023-01-01T12:33:08.332Z,943.39
2023-01-01T12:34:06.822Z,943.43
2023-01-01T12:35:07.784Z,943.4
2023-01-01T12:36:08.746Z,943.4
2023-01-01T12:37:09.700Z,943.42
2023-01-01T12:38:09.937Z,943.43
2023-01-01T12:39:10.580Z,943.43
2023-01-01T12:40:16.050Z,943.38
2023-01-01T12:41:12.062Z,943.37
2023-01-01T12:42:12.732Z,943.4
2023-01-01T12:43:13.664Z,943.4